createdAt,value
2022-08-14T00:01:54.747Z,61.98
2022-08-14T00:04:35.121Z,62.25
2022-08-14T00:07:06.962Z,62.96
2022-08-14T00:09:56.298Z,62.77
2022-08-14T00:12:24.596Z,63.41
2022-08-14T00:14:55.188Z,63.10
2022-08-14T00:17:23.141Z,62.94
2022-08-14T00:19:51.808Z,63.65
2022-08-14T00:22:22.109Z,64.27
2022-08-14T00:25:08.092Z,63.84
2022-08-14T00:27:37.754Z,63.77
2022-08-14T00:30:08.184Z,64.09
2022-08-14T00:33:01.632Z,64.38
2022-08-14T00:36:34.262Z,65.35
2022-08-14T00:38:13.304Z,64.66
2022-08-14T00:40:40.496Z,64.74
2022-08-14T00:43:13.808Z,65.23
2022-08-14T00:45:42.991Z,65.27
2022-08-14T00:48:34.590Z,66.06
2022-08-14T00:51:05.623Z,65.66
2022-08-14T00:53:32.859Z,65.67
2022-08-14T00:56:00.080Z,65.87
2022-08-14T00:58:33.410Z,66.32
2022-08-14T01:01:08.084Z,66.11
2022-08-14T01:03:38.059Z,66.66
2022-08-14T01:06:09.980Z,67.07
2022-08-14T01:08:51.355Z,66.87
2022-08-14T01:11:24.777Z,67.10
2022-08-14T01:13:56.161Z,66.88
2022-08-14T01:16:31.136Z,66.83
2022-08-14T01:19:19.757Z,67.01
2022-08-14T01:21:52.859Z,66.67
2022-08-14T01:24:34.216Z,67.41
2022-08-14T01:27:04.792Z,67.46
2022-08-14T01:29:59.144Z,67.36
2022-08-14T01:32:24.968Z,67.03
2022-08-14T01:35:19.760Z,67.58
2022-08-14T01:37:46.751Z,67.51
2022-08-14T01:40:25.553Z,68.01
2022-08-14T01:43:02.770Z,68.30
2022-08-14T01:45:31.492Z,68.29
2022-08-14T01:48:13.731Z,68.62
2022-08-14T01:50:44.152Z,68.68
2022-08-14T01:53:12.591Z,68.29
2022-08-14T01:55:41.040Z,68.21
2022-08-14T01:58:20.305Z,67.99
2022-08-14T02:00:55.127Z,68.14
2022-08-14T02:03:30.967Z,67.50
2022-08-14T02:05:59.760Z,67.32
2022-08-14T02:08:34.704Z,67.40
2022-08-14T02:11:22.632Z,67.31
2022-08-14T02:13:52.397Z,67.55
2022-08-14T02:16:26.296Z,67.78
2022-08-14T02:18:58.914Z,67.27
2022-08-14T02:21:27.689Z,67.75
2022-08-14T02:23:57.183Z,68.04
2022-08-14T02:26:29.496Z,67.85
2022-08-14T02:29:08.814Z,67.33
2022-08-14T02:31:43.687Z,67.68
2022-08-14T02:34:31.967Z,67.45
2022-08-14T02:37:09.793Z,67.71
2022-08-14T02:39:43.643Z,67.95
2022-08-14T02:42:14.725Z,68.32
2022-08-14T02:44:49.437Z,67.94
2022-08-14T02:47:20.531Z,68.04
2022-08-14T02:49:50.649Z,68.37
2022-08-14T02:52:56.825Z,68.33
2022-08-14T02:55:19.884Z,68.38
2022-08-14T02:57:51.999Z,68.73
2022-08-14T03:00:32.963Z,68.25
2022-08-14T03:03:02.668Z,68.38
2022-08-14T03:05:37.145Z,68.72
2022-08-14T03:08:15.201Z,68.56
2022-08-14T03:10:48.620Z,69.03
2022-08-14T03:13:19.534Z,69.38
2022-08-14T03:15:56.085Z,69.06
2022-08-14T03:18:31.441Z,69.28
2022-08-14T03:21:02.035Z,69.06
2022-08-14T03:23:38.032Z,68.79
2022-08-14T03:26:12.933Z,69.22
2022-08-14T03:28:51.274Z,68.79
2022-08-14T03:31:25.931Z,68.88
2022-08-14T03:33:54.250Z,69.60
2022-08-14T03:37:39.254Z,69.07
2022-08-14T03:39:24.208Z,70.07
2022-08-14T03:41:54.636Z,69.73
2022-08-14T03:45:19.986Z,70.01
2022-08-14T03:47:11.717Z,69.90
2022-08-14T03:49:42.019Z,70.16
2022-08-14T03:52:17.989Z,69.84
2022-08-14T03:54:59.137Z,70.77
2022-08-14T03:57:32.688Z,70.06
2022-08-14T04:00:03.711Z,69.86
2022-08-14T04:02:37.097Z,70.00
2022-08-14T04:05:16.725Z,70.54
2022-08-14T04:07:49.780Z,70.48
2022-08-14T04:10:32.858Z,70.42
2022-08-14T04:13:06.150Z,70.10
2022-08-14T04:15:40.893Z,70.40
2022-08-14T04:18:21.417Z,70.45
2022-08-14T04:20:54.258Z,70.54
2022-08-14T04:23:23.539Z,70.52
2022-08-14T04:25:54.881Z,70.09
2022-08-14T04:29:06.834Z,70.20
2022-08-14T04:31:09.740Z,70.12
2022-08-14T04:33:38.189Z,69.80
2022-08-14T04:36:06.243Z,70.12
2022-08-14T04:38:55.094Z,70.08
2022-08-14T04:41:43.342Z,70.18
2022-08-14T04:44:13.365Z,69.80
2022-08-14T04:47:12.601Z,69.85
2022-08-14T04:49:56.692Z,69.78
2022-08-14T04:52:25.445Z,69.52
2022-08-14T04:54:54.470Z,69.66
2022-08-14T04:57:22.884Z,70.15
2022-08-14T04:59:52.721Z,70.02
2022-08-14T05:02:24.471Z,69.91
2022-08-14T05:04:58.592Z,69.78
2022-08-14T05:07:46.883Z,69.56
2022-08-14T05:10:16.768Z,69.35
2022-08-14T05:13:12.633Z,69.50
2022-08-14T05:15:39.685Z,69.07
2022-08-14T05:18:17.222Z,68.90
2022-08-14T05:21:54.460Z,68.46
2022-08-14T05:23:37.800Z,67.77
2022-08-14T05:26:17.170Z,67.56
2022-08-14T05:28:45.949Z,67.22
2022-08-14T05:31:20.529Z,66.98
2022-08-14T05:33:56.388Z,66.34
2022-08-14T05:36:25.652Z,65.84
2022-08-14T05:38:55.315Z,65.71
2022-08-14T05:41:22.716Z,65.22
2022-08-14T05:43:51.199Z,64.84
2022-08-14T05:46:43.859Z,64.90
2022-08-14T05:49:14.378Z,65.04
2022-08-14T05:51:41.606Z,64.59
2022-08-14T05:54:13.581Z,64.87
2022-08-14T05:56:54.326Z,64.19
2022-08-14T05:59:36.390Z,63.90
2022-08-14T06:02:10.736Z,63.34
2022-08-14T06:04:39.354Z,63.11
2022-08-14T06:07:06.953Z,63.04
2022-08-14T06:09:35.931Z,62.63
2022-08-14T06:12:09.552Z,62.45
2022-08-14T06:14:37.409Z,62.15
2022-08-14T06:17:06.370Z,61.46
2022-08-14T06:19:33.573Z,61.33
2022-08-14T06:22:02.170Z,61.01
2022-08-14T06:24:30.598Z,60.79
2022-08-14T06:27:06.120Z,60.74
2022-08-14T06:29:35.233Z,60.42
2022-08-14T06:32:37.328Z,60.56
2022-08-14T06:35:04.335Z,60.14
2022-08-14T06:37:47.724Z,59.77
2022-08-14T06:40:26.695Z,59.63
2022-08-14T06:43:00.225Z,59.24
2022-08-14T06:45:34.130Z,59.19
2022-08-14T06:48:01.293Z,58.98
2022-08-14T06:50:30.439Z,58.71
2022-08-14T06:52:58.825Z,58.19
2022-08-14T06:55:28.169Z,58.51
2022-08-14T06:57:57.809Z,57.64
2022-08-14T07:00:31.231Z,57.49
2022-08-14T07:03:19.111Z,57.44
2022-08-14T07:05:57.942Z,56.52
2022-08-14T07:08:29.604Z,56.57
2022-08-14T07:11:00.969Z,56.66
2022-08-14T07:13:30.574Z,56.15
2022-08-14T07:15:59.016Z,55.52
2022-08-14T07:18:31.124Z,55.49
2022-08-14T07:20:59.811Z,54.98
2022-08-14T07:23:27.565Z,54.73
2022-08-14T07:25:58.209Z,54.24
2022-08-14T07:28:28.791Z,54.15
2022-08-14T07:31:05.121Z,53.50
2022-08-14T07:33:45.592Z,53.30
2022-08-14T07:36:26.530Z,52.63
2022-08-14T07:39:00.911Z,52.24
2022-08-14T07:41:33.876Z,52.43
2022-08-14T07:44:29.308Z,51.66
2022-08-14T07:46:50.978Z,51.37
2022-08-14T07:49:19.290Z,50.90
2022-08-14T07:51:49.336Z,50.45
2022-08-14T07:54:23.681Z,49.21
2022-08-14T07:57:06.549Z,49.19
2022-08-14T07:59:43.764Z,48.80
2022-08-14T08:02:19.097Z,48.64
2022-08-14T08:04:54.447Z,48.24
2022-08-14T08:07:29.953Z,47.93
2022-08-14T08:09:58.455Z,47.72
2022-08-14T08:12:30.866Z,47.38
2022-08-14T08:15:03.087Z,46.92
2022-08-14T08:17:38.938Z,46.86
2022-08-14T08:20:15.641Z,46.45
2022-08-14T08:22:48.446Z,46.32
2022-08-14T08:25:18.829Z,46.29
2022-08-14T08:28:21.800Z,46.32
2022-08-14T08:31:00.084Z,46.00
2022-08-14T08:33:37.254Z,45.83
2022-08-14T08:36:08.182Z,44.91
2022-08-14T08:39:14.803Z,44.44
2022-08-14T08:41:27.936Z,44.54
2022-08-14T08:44:05.780Z,43.54
2022-08-14T08:46:44.725Z,43.43
2022-08-14T08:49:15.422Z,42.95
2022-08-14T08:51:42.997Z,43.11
2022-08-14T08:54:18.362Z,43.53
2022-08-14T08:56:48.525Z,43.13
2022-08-14T08:59:34.202Z,42.69
2022-08-14T09:02:10.342Z,42.76
2022-08-14T09:04:52.871Z,42.44
2022-08-14T09:07:27.975Z,42.21
2022-08-14T09:10:00.145Z,41.47
2022-08-14T09:12:31.785Z,41.13
2022-08-14T09:15:01.824Z,40.93
2022-08-14T09:17:29.095Z,40.71
2022-08-14T09:19:56.657Z,40.25
2022-08-14T09:22:35.427Z,39.57
2022-08-14T09:25:07.040Z,39.43
2022-08-14T09:27:36.647Z,39.05
2022-08-14T09:30:30.645Z,39.71
2022-08-14T09:33:10.609Z,39.12
2022-08-14T09:35:45.870Z,38.45
2022-08-14T09:38:26.156Z,37.70
2022-08-14T09:41:13.631Z,38.10
2022-08-14T09:43:43.999Z,36.98
2022-08-14T09:46:16.995Z,37.08
2022-08-14T09:49:04.574Z,37.23
2022-08-14T09:51:32.740Z,36.67
2022-08-14T09:54:12.568Z,36.30
2022-08-14T09:56:47.056Z,35.88
2022-08-14T09:59:28.228Z,34.94
2022-08-14T10:01:59.513Z,34.43
2022-08-14T10:04:36.681Z,34.28
2022-08-14T10:07:05.685Z,34.04
2022-08-14T10:09:34.873Z,33.06
2022-08-14T10:12:04.444Z,33.20
2022-08-14T10:14:36.608Z,32.85
2022-08-14T10:17:06.334Z,32.82
2022-08-14T10:19:35.999Z,32.02
2022-08-14T10:23:13.598Z,32.02
2022-08-14T10:25:00.018Z,31.90
2022-08-14T10:27:28.896Z,31.96
2022-08-14T10:30:01.947Z,31.79
2022-08-14T10:32:40.195Z,32.12
2022-08-14T10:35:16.809Z,30.98
2022-08-14T10:37:50.098Z,30.60
2022-08-14T10:40:37.677Z,30.83
2022-08-14T10:43:26.034Z,30.55
2022-08-14T10:45:59.968Z,30.37
2022-08-14T10:49:00.821Z,30.88
2022-08-14T10:51:34.053Z,30.92
2022-08-14T10:54:35.112Z,31.28
2022-08-14T10:57:12.262Z,30.71
2022-08-14T10:59:50.489Z,30.70
2022-08-14T11:02:36.192Z,30.29
2022-08-14T11:05:13.068Z,30.26
2022-08-14T11:07:50.932Z,30.17
2022-08-14T11:10:39.670Z,30.32
2022-08-14T11:13:15.451Z,30.18
2022-08-14T11:15:43.143Z,30.25
2022-08-14T11:18:12.100Z,30.06
2022-08-14T11:20:54.466Z,29.69
2022-08-14T11:23:28.386Z,30.28
2022-08-14T11:26:07.069Z,29.98
2022-08-14T11:28:48.062Z,29.75
2022-08-14T11:31:25.583Z,29.14
2022-08-14T11:33:55.286Z,28.97
2022-08-14T11:37:02.007Z,29.09
2022-08-14T11:39:34.508Z,28.49
2022-08-14T11:42:57.236Z,28.16
2022-08-14T11:44:56.634Z,28.19
2022-08-14T11:47:27.202Z,27.12
2022-08-14T11:50:13.246Z,26.83
2022-08-14T11:52:40.696Z,27.24
2022-08-14T11:55:11.572Z,27.65
2022-08-14T11:57:40.536Z,28.38
2022-08-14T12:00:19.738Z,27.42
2022-08-14T12:03:03.213Z,26.98
2022-08-14T12:05:38.768Z,27.06
2022-08-14T12:08:11.106Z,27.28
2022-08-14T12:10:42.689Z,26.62
2022-08-14T12:13:13.890Z,26.21
2022-08-14T12:15:45.320Z,25.94
2022-08-14T12:18:19.770Z,26.34
2022-08-14T12:20:52.209Z,26.30
2022-08-14T12:23:23.095Z,26.37
2022-08-14T12:26:01.478Z,25.72
2022-08-14T12:28:59.482Z,25.55
2022-08-14T12:31:26.202Z,25.08
2022-08-14T12:33:59.692Z,24.96
2022-08-14T12:36:30.928Z,24.83
2022-08-14T12:38:58.399Z,24.81
2022-08-14T12:41:36.985Z,24.50
2022-08-14T12:44:08.447Z,24.80
2022-08-14T12:46:37.776Z,24.68
2022-08-14T12:49:16.232Z,24.56
2022-08-14T12:51:44.693Z,24.62
2022-08-14T12:54:27.646Z,24.52
2022-08-14T12:57:09.040Z,24.12
2022-08-14T12:59:42.630Z,23.83
2022-08-14T13:02:26.608Z,23.48
2022-08-14T13:04:55.733Z,22.56
2022-08-14T13:07:24.145Z,22.08
2022-08-14T13:09:58.365Z,22.36
2022-08-14T13:12:31.820Z,22.08
2022-08-14T13:15:08.840Z,23.69
2022-08-14T13:17:48.106Z,23.61
2022-08-14T13:20:23.478Z,23.16
2022-08-14T13:22:54.894Z,23.19
2022-08-14T13:25:25.479Z,23.61
2022-08-14T13:27:57.592Z,23.58
2022-08-14T13:30:26.204Z,23.83
2022-08-14T13:32:54.661Z,23.97
2022-08-14T13:35:25.391Z,23.25
2022-08-14T13:37:53.704Z,22.11
2022-08-14T13:40:26.045Z,21.77
2022-08-14T13:42:55.203Z,20.87
2022-08-14T13:45:59.412Z,20.80
2022-08-14T13:48:32.524Z,21.00
2022-08-14T13:51:04.750Z,20.37
2022-08-14T13:53:37.967Z,19.95
2022-08-14T13:56:14.602Z,18.71
2022-08-14T13:58:47.040Z,17.14
2022-08-14T14:01:16.190Z,16.07
2022-08-14T14:03:46.651Z,14.44
2022-08-14T14:06:16.168Z,13.28
2022-08-14T14:08:49.036Z,13.22
2022-08-14T14:11:20.882Z,12.67
2022-08-14T14:13:48.515Z,11.49
2022-08-14T14:16:26.208Z,10.16
2022-08-14T14:19:08.986Z,9.65
2022-08-14T14:21:38.137Z,9.09
2022-08-14T14:24:08.484Z,8.55
2022-08-14T14:26:47.164Z,6.99
2022-08-14T14:29:15.001Z,7.23
2022-08-14T14:31:48.069Z,6.05
2022-08-14T14:34:29.386Z,7.42
2022-08-14T14:37:02.597Z,5.96
2022-08-14T14:39:35.190Z,5.57
2022-08-14T14:42:08.057Z,5.89
2022-08-14T14:44:40.329Z,6.07
2022-08-14T14:47:12.320Z,5.60
2022-08-14T14:49:51.383Z,4.84
2022-08-14T14:52:27.734Z,5.26
2022-08-14T14:54:59.142Z,5.09
2022-08-14T14:57:34.988Z,4.45
2022-08-14T15:00:12.631Z,5.06
2022-08-14T15:02:45.069Z,4.93
2022-08-14T15:05:14.156Z,4.07
2022-08-14T15:07:42.450Z,4.01
2022-08-14T15:10:28.055Z,3.73
2022-08-14T15:13:03.437Z,4.01
2022-08-14T15:15:32.589Z,4.15
2022-08-14T15:18:01.053Z,3.78
2022-08-14T15:20:30.819Z,3.68
2022-08-14T15:23:12.059Z,4.11
2022-08-14T15:25:40.886Z,4.28
2022-08-14T15:28:11.469Z,4.38
2022-08-14T15:30:41.446Z,3.98
2022-08-14T15:33:09.904Z,4.85
2022-08-14T15:35:37.127Z,3.63
2022-08-14T15:38:12.113Z,4.41
2022-08-14T15:40:51.719Z,4.08
2022-08-14T15:43:25.395Z,3.36
2022-08-14T15:45:56.162Z,3.83
2022-08-14T15:48:23.518Z,4.28
2022-08-14T15:50:50.800Z,4.34
2022-08-14T15:53:22.119Z,4.61
2022-08-14T15:55:50.466Z,4.32
2022-08-14T15:58:24.250Z,3.68
2022-08-14T16:01:12.749Z,4.57
2022-08-14T16:03:42.435Z,4.27
2022-08-14T16:06:17.597Z,3.97
2022-08-14T16:08:46.825Z,4.56
2022-08-14T16:11:17.914Z,4.40
2022-08-14T16:13:47.761Z,4.24
2022-08-14T16:16:48.142Z,4.96
2022-08-14T16:19:10.173Z,4.42
2022-08-14T16:21:39.490Z,4.91
2022-08-14T16:24:08.223Z,5.72
2022-08-14T16:27:00.441Z,5.34
2022-08-14T16:29:34.471Z,7.62
2022-08-14T16:32:33.605Z,9.77
2022-08-14T16:34:54.734Z,11.43
2022-08-14T16:37:30.915Z,12.23
2022-08-14T16:40:01.656Z,13.58
2022-08-14T16:42:38.640Z,14.50
2022-08-14T16:45:24.041Z,15.45
2022-08-14T16:47:51.144Z,16.07
2022-08-14T16:50:42.993Z,16.80
2022-08-14T16:53:07.446Z,17.51
2022-08-14T16:55:53.296Z,17.98
2022-08-14T16:58:30.181Z,18.50
2022-08-14T17:01:23.016Z,19.00
2022-08-14T17:04:09.666Z,19.61
2022-08-14T17:06:45.896Z,20.35
2022-08-14T17:09:24.047Z,20.88
2022-08-14T17:12:35.221Z,21.95
2022-08-14T17:15:10.642Z,21.79
2022-08-14T17:17:40.816Z,22.70
2022-08-14T17:20:53.769Z,22.38
2022-08-14T17:23:11.149Z,23.38
2022-08-14T17:25:39.028Z,23.15
2022-08-14T17:28:50.128Z,23.67
2022-08-14T17:31:00.260Z,24.48
2022-08-14T17:33:40.802Z,24.56
2022-08-14T17:36:20.750Z,25.71
2022-08-14T17:39:06.819Z,25.51
2022-08-14T17:41:43.580Z,25.74
2022-08-14T17:44:45.666Z,26.10
2022-08-14T17:47:18.351Z,26.67
2022-08-14T17:49:52.112Z,27.67
2022-08-14T17:52:34.973Z,27.59
2022-08-14T17:56:00.363Z,27.95
2022-08-14T17:57:58.653Z,28.20
2022-08-14T18:00:26.283Z,28.30
2022-08-14T18:02:54.444Z,28.61
2022-08-14T18:06:07.603Z,28.54
2022-08-14T18:08:32.218Z,29.35
2022-08-14T18:11:00.052Z,29.59
2022-08-14T18:13:50.831Z,29.21
2022-08-14T18:16:19.855Z,29.56
2022-08-14T18:18:48.288Z,30.02
2022-08-14T18:21:43.050Z,30.53
2022-08-14T18:24:02.699Z,31.42
2022-08-14T18:26:36.826Z,31.77
2022-08-14T18:29:09.901Z,32.76
2022-08-14T18:31:44.020Z,33.91
2022-08-14T18:34:32.102Z,34.12
2022-08-14T18:37:18.342Z,34.63
2022-08-14T18:40:01.418Z,34.90
2022-08-14T18:42:40.872Z,35.49
2022-08-14T18:45:34.381Z,36.01
2022-08-14T18:48:18.063Z,36.28
2022-08-14T18:51:05.308Z,36.15
2022-08-14T18:53:59.627Z,37.01
2022-08-14T18:56:58.479Z,36.62
2022-08-14T18:59:43.353Z,36.75
2022-08-14T19:02:30.601Z,36.92
2022-08-14T19:05:02.821Z,36.96
2022-08-14T19:07:33.436Z,37.01
2022-08-14T19:10:10.197Z,37.26
2022-08-14T19:12:52.577Z,37.38
2022-08-14T19:15:26.008Z,37.49
2022-08-14T19:18:14.019Z,37.68
2022-08-14T19:21:13.231Z,38.14
2022-08-14T19:23:44.127Z,38.54
2022-08-14T19:26:35.252Z,38.58
2022-08-14T19:29:37.785Z,38.71
2022-08-14T19:32:36.577Z,39.19
2022-08-14T19:35:49.168Z,39.49
2022-08-14T19:38:44.808Z,39.57
2022-08-14T19:41:17.622Z,39.30
2022-08-14T19:43:52.260Z,39.34
2022-08-14T19:46:37.870Z,39.95
2022-08-14T19:49:06.988Z,39.70
2022-08-14T19:51:46.932Z,40.71
2022-08-14T19:54:16.211Z,41.44
2022-08-14T19:56:45.147Z,41.07
2022-08-14T19:59:18.564Z,41.74
2022-08-14T20:01:50.561Z,42.06
2022-08-14T20:04:47.527Z,42.41
2022-08-14T20:08:09.132Z,42.47
2022-08-14T20:11:05.012Z,42.82
2022-08-14T20:13:38.510Z,43.13
2022-08-14T20:16:12.359Z,43.42
2022-08-14T20:18:49.568Z,43.53
2022-08-14T20:21:18.343Z,44.32
2022-08-14T20:23:48.276Z,44.60
2022-08-14T20:26:31.453Z,44.51
2022-08-14T20:29:05.073Z,44.93
2022-08-14T20:31:37.183Z,44.98
2022-08-14T20:34:24.479Z,45.62
2022-08-14T20:37:09.562Z,45.62
2022-08-14T20:39:39.954Z,45.90
2022-08-14T20:42:34.242Z,46.14
2022-08-14T20:45:21.538Z,45.96
2022-08-14T20:47:56.446Z,46.11
2022-08-14T20:50:28.882Z,46.43
2022-08-14T20:53:00.765Z,46.26
2022-08-14T20:55:41.626Z,46.37
2022-08-14T20:58:43.245Z,46.47
2022-08-14T21:01:13.774Z,47.12
2022-08-14T21:03:57.036Z,46.77
2022-08-14T21:07:22.662Z,46.45
2022-08-14T21:10:03.181Z,47.13
2022-08-14T21:12:33.670Z,47.60
2022-08-14T21:15:01.212Z,47.70
2022-08-14T21:17:29.548Z,47.95
2022-08-14T21:19:57.183Z,48.14
2022-08-14T21:22:26.728Z,48.30
2022-08-14T21:25:01.642Z,48.67
2022-08-14T21:27:45.985Z,48.33
2022-08-14T21:30:21.161Z,48.76
2022-08-14T21:33:08.998Z,48.75
2022-08-14T21:35:45.498Z,48.84
2022-08-14T21:38:17.886Z,48.99
2022-08-14T21:40:49.064Z,49.03
2022-08-14T21:43:23.197Z,49.69
2022-08-14T21:45:58.180Z,49.69
2022-08-14T21:48:31.393Z,49.67
2022-08-14T21:51:52.499Z,50.14
2022-08-14T21:53:59.190Z,50.70
2022-08-14T21:56:38.348Z,50.79
2022-08-14T21:59:17.957Z,50.93
2022-08-14T22:02:01.860Z,51.16
2022-08-14T22:04:33.705Z,51.15
2022-08-14T22:07:07.419Z,51.44
2022-08-14T22:09:36.649Z,51.32
2022-08-14T22:12:09.549Z,51.40
2022-08-14T22:14:43.458Z,51.56
2022-08-14T22:17:16.508Z,52.26
2022-08-14T22:19:55.068Z,52.56
2022-08-14T22:22:25.941Z,52.58
2022-08-14T22:24:59.691Z,52.95
2022-08-14T22:27:30.029Z,53.25
2022-08-14T22:30:01.143Z,53.73
2022-08-14T22:32:56.773Z,53.89
2022-08-14T22:35:16.504Z,54.26
2022-08-14T22:37:44.612Z,54.04
2022-08-14T22:40:54.868Z,54.63
2022-08-14T22:43:08.301Z,54.56
2022-08-14T22:45:37.780Z,54.91
2022-08-14T22:48:11.192Z,55.77
2022-08-14T22:50:53.416Z,55.62
2022-08-14T22:53:21.829Z,56.04
2022-08-14T22:55:52.040Z,56.71
2022-08-14T22:58:31.578Z,56.63
2022-08-14T23:01:12.023Z,56.62
2022-08-14T23:03:42.181Z,56.90
2022-08-14T23:07:02.736Z,57.52
2022-08-14T23:09:35.504Z,57.43
2022-08-14T23:11:46.727Z,58.42
2022-08-14T23:14:14.972Z,58.13
2022-08-14T23:16:57.085Z,58.41
2022-08-14T23:19:25.720Z,59.08
2022-08-14T23:22:01.334Z,58.98
2022-08-14T23:24:28.926Z,58.69
2022-08-14T23:26:57.834Z,59.11
2022-08-14T23:29:24.994Z,58.98
2022-08-14T23:31:52.640Z,59.01
2022-08-14T23:34:22.221Z,59.16
2022-08-14T23:36:55.355Z,59.36
2022-08-14T23:39:30.164Z,59.18
2022-08-14T23:42:02.340Z,59.75
2022-08-14T23:44:35.112Z,60.43
2022-08-14T23:47:11.911Z,59.46
2022-08-14T23:49:59.795Z,59.57
2022-08-14T23:52:55.892Z,59.91
2022-08-14T23:55:17.341Z,59.97
2022-08-14T23:57:57.679Z,59.76
